createdAt,value
2018-07-23T00:00:44.823Z,6.17
2018-07-23T00:03:14.552Z,5.37
2018-07-23T00:05:44.257Z,4.77
2018-07-23T00:08:14.914Z,4.37
2018-07-23T00:10:44.725Z,4.50
2018-07-23T00:13:14.462Z,5.40
2018-07-23T00:15:44.209Z,5.03
2018-07-23T00:18:12.846Z,4.73
2018-07-23T00:20:42.680Z,5.27
2018-07-23T00:23:12.454Z,6.13
2018-07-23T00:25:42.231Z,5.40
2018-07-23T00:28:11.894Z,4.70
2018-07-23T00:30:41.682Z,5.47
2018-07-23T00:33:11.418Z,5.80
2018-07-23T00:35:41.099Z,5.47
2018-07-23T00:38:10.765Z,5.00
2018-07-23T00:40:40.481Z,5.10
2018-07-23T00:43:10.220Z,5.77
2018-07-23T00:45:39.982Z,5.27
2018-07-23T00:48:09.725Z,6.03
2018-07-23T00:50:39.384Z,5.70
2018-07-23T00:53:09.089Z,5.80
2018-07-23T00:55:38.854Z,5.70
2018-07-23T00:58:08.624Z,6.43
2018-07-23T01:00:38.335Z,7.20
2018-07-23T01:03:08.209Z,6.30
2018-07-23T01:05:39.240Z,6.37
2018-07-23T01:08:09.104Z,6.00
2018-07-23T01:10:38.808Z,6.40
2018-07-23T01:13:08.545Z,6.80
2018-07-23T01:15:37.914Z,5.50
2018-07-23T01:18:07.736Z,6.47
2018-07-23T01:20:37.461Z,8.00
2018-07-23T01:23:07.276Z,7.83
2018-07-23T01:25:37.019Z,6.30
2018-07-23T01:28:06.436Z,6.53
2018-07-23T01:30:36.182Z,8.33
2018-07-23T01:33:05.990Z,7.40
2018-07-23T01:35:35.689Z,7.63
2018-07-23T01:38:05.377Z,8.70
2018-07-23T01:40:35.136Z,9.50
2018-07-23T01:43:04.844Z,8.93
2018-07-23T01:45:34.637Z,9.20
2018-07-23T01:48:04.329Z,9.20
2018-07-23T01:50:34.026Z,9.30
2018-07-23T01:53:03.941Z,9.93
2018-07-23T01:55:33.617Z,9.30
2018-07-23T01:58:03.320Z,10.30
2018-07-23T02:00:33.069Z,10.37
2018-07-23T02:03:02.722Z,9.93
2018-07-23T02:05:32.400Z,9.90
2018-07-23T02:08:02.130Z,10.67
2018-07-23T02:10:31.946Z,11.13
2018-07-23T02:13:01.627Z,10.50
2018-07-23T02:15:31.344Z,11.90
2018-07-23T02:18:01.068Z,10.97
2018-07-23T02:20:30.840Z,13.27
2018-07-23T02:23:00.576Z,11.07
2018-07-23T02:25:30.313Z,11.37
2018-07-23T02:28:00.022Z,11.70
2018-07-23T02:30:29.721Z,12.40
2018-07-23T02:32:59.415Z,12.73
2018-07-23T02:35:29.077Z,11.00
2018-07-23T02:37:58.794Z,13.10
2018-07-23T02:40:28.571Z,12.50
2018-07-23T02:42:58.357Z,12.27
2018-07-23T02:45:28.075Z,11.77
2018-07-23T02:47:58.080Z,12.53
2018-07-23T02:50:27.712Z,12.40
2018-07-23T02:52:57.438Z,13.23
2018-07-23T02:55:27.137Z,14.20
2018-07-23T02:57:56.829Z,13.20
2018-07-23T03:00:26.759Z,13.00
2018-07-23T03:02:56.492Z,12.13
2018-07-23T03:05:26.407Z,11.50
2018-07-23T03:07:56.113Z,11.27
2018-07-23T03:10:25.854Z,9.77
2018-07-23T03:12:55.576Z,11.10
2018-07-23T03:15:25.307Z,10.20
2018-07-23T03:17:55.132Z,10.80
2018-07-23T03:20:24.853Z,10.73
2018-07-23T03:22:54.605Z,11.70
2018-07-23T03:25:24.301Z,11.53
2018-07-23T03:27:54.029Z,12.80
2018-07-23T03:30:23.717Z,11.83
2018-07-23T03:32:53.499Z,11.47
2018-07-23T03:35:23.267Z,11.70
2018-07-23T03:37:52.939Z,13.47
2018-07-23T03:40:22.617Z,11.63
2018-07-23T03:42:52.389Z,12.60
2018-07-23T03:45:22.162Z,14.83
2018-07-23T03:47:51.807Z,12.63
2018-07-23T03:50:21.469Z,14.20
2018-07-23T03:52:51.138Z,13.50
2018-07-23T03:55:20.836Z,14.00
2018-07-23T03:57:50.679Z,12.90
2018-07-23T04:00:20.364Z,12.53
2018-07-23T04:02:50.107Z,12.43
2018-07-23T04:05:19.767Z,13.20
2018-07-23T04:07:49.537Z,11.43
2018-07-23T04:10:19.273Z,14.70
2018-07-23T04:12:48.974Z,13.73
2018-07-23T04:15:18.685Z,12.83
2018-07-23T04:17:53.300Z,14.80
2018-07-23T04:20:23.034Z,16.40
2018-07-23T04:22:52.705Z,17.30
2018-07-23T04:25:22.369Z,15.83
2018-07-23T04:27:52.094Z,16.53
2018-07-23T04:30:21.917Z,15.73
2018-07-23T04:32:51.617Z,13.87
2018-07-23T04:35:21.327Z,13.37
2018-07-23T04:37:51.076Z,14.50
2018-07-23T04:40:20.826Z,13.83
2018-07-23T04:42:50.507Z,11.67
2018-07-23T04:45:20.152Z,11.93
2018-07-23T04:47:49.845Z,14.63
2018-07-23T04:50:19.656Z,13.90
2018-07-23T04:52:49.364Z,16.90
2018-07-23T04:55:18.700Z,15.87
2018-07-23T04:57:48.426Z,15.33
2018-07-23T05:00:18.233Z,16.90
2018-07-23T05:02:48.022Z,17.10
2018-07-23T05:05:17.727Z,19.47
2018-07-23T05:07:47.090Z,18.57
2018-07-23T05:10:16.816Z,19.27
2018-07-23T05:12:46.522Z,20.07
2018-07-23T05:15:16.256Z,18.00
2018-07-23T05:17:45.934Z,18.63
2018-07-23T05:20:15.684Z,18.20
2018-07-23T05:22:45.359Z,17.63
2018-07-23T05:25:15.058Z,18.50
2018-07-23T05:27:45.657Z,19.13
2018-07-23T05:30:15.787Z,17.53
2018-07-23T05:32:45.140Z,21.00
2018-07-23T05:35:14.880Z,19.13
2018-07-23T05:37:44.625Z,18.67
2018-07-23T05:40:14.366Z,21.50
2018-07-23T05:45:23.548Z,18.50
2018-07-23T05:47:54.618Z,19.20
2018-07-23T05:50:24.285Z,19.87
2018-07-23T05:52:54.101Z,19.43
2018-07-23T05:55:23.814Z,18.30
2018-07-23T05:57:53.899Z,19.27
2018-07-23T06:00:23.215Z,18.53
2018-07-23T06:02:52.948Z,18.73
2018-07-23T06:05:22.589Z,19.60
2018-07-23T06:07:52.280Z,19.10
2018-07-23T06:10:22.031Z,19.10
2018-07-23T06:12:51.808Z,18.60
2018-07-23T06:15:21.567Z,17.13
2018-07-23T06:17:51.374Z,17.30
2018-07-23T06:20:21.237Z,18.27
2018-07-23T06:22:51.016Z,19.00
2018-07-23T06:25:20.352Z,17.33
2018-07-23T06:27:50.020Z,20.43
2018-07-23T06:30:19.889Z,19.67
2018-07-23T06:32:49.558Z,19.40
2018-07-23T06:35:19.369Z,19.50
2018-07-23T06:37:49.116Z,17.57
2018-07-23T06:40:19.027Z,18.33
2018-07-23T06:42:48.741Z,18.57
2018-07-23T06:45:18.505Z,19.43
2018-07-23T06:47:48.281Z,18.00
2018-07-23T06:50:18.578Z,17.60
2018-07-23T06:52:48.330Z,18.20
2018-07-23T06:55:18.752Z,17.63
2018-07-23T06:57:48.437Z,17.27
2018-07-23T07:00:18.839Z,17.20
2018-07-23T07:02:48.526Z,16.47
2018-07-23T07:05:18.242Z,17.10
2018-07-23T07:07:47.913Z,16.20
2018-07-23T07:10:17.581Z,17.10
2018-07-23T07:12:47.316Z,16.10
2018-07-23T07:15:17.002Z,16.40
2018-07-23T07:17:46.738Z,16.73
2018-07-23T07:20:16.465Z,17.47
2018-07-23T07:22:46.137Z,15.23
2018-07-23T07:25:15.955Z,17.67
2018-07-23T07:27:45.580Z,17.43
2018-07-23T07:30:15.358Z,15.00
2018-07-23T07:32:45.003Z,16.00
2018-07-23T07:35:14.739Z,14.87
2018-07-23T07:37:44.513Z,14.97
2018-07-23T07:40:14.265Z,16.23
2018-07-23T07:42:44.033Z,15.43
2018-07-23T07:45:13.810Z,15.20
2018-07-23T07:47:43.734Z,15.37
2018-07-23T07:59:00.014Z,14.80
2018-07-23T08:01:29.745Z,14.30
2018-07-23T08:04:00.586Z,15.67
2018-07-23T08:06:31.613Z,14.33
2018-07-23T08:09:01.358Z,14.70
2018-07-23T08:11:31.261Z,15.30
2018-07-23T08:14:00.998Z,13.73
2018-07-23T08:16:30.397Z,15.00
2018-07-23T08:19:00.223Z,13.37
2018-07-23T08:21:30.021Z,13.50
2018-07-23T08:23:59.681Z,14.50
2018-07-23T08:26:29.378Z,14.03
2018-07-23T08:28:59.252Z,13.00
2018-07-23T08:31:29.019Z,13.43
2018-07-23T08:33:58.817Z,11.77
2018-07-23T08:36:28.549Z,13.40
2018-07-23T08:38:58.234Z,11.57
2018-07-23T08:41:28.090Z,12.17
2018-07-23T08:43:58.118Z,11.50
2018-07-23T08:46:27.947Z,10.80
2018-07-23T08:48:57.632Z,11.97
2018-07-23T08:51:27.474Z,11.80
2018-07-23T08:53:57.284Z,11.33
2018-07-23T08:56:26.973Z,11.33
2018-07-23T08:58:56.761Z,11.60
2018-07-23T09:01:26.545Z,9.83
2018-07-23T09:03:56.358Z,9.97
2018-07-23T09:06:26.067Z,11.37
2018-07-23T09:08:55.903Z,11.50
2018-07-23T09:11:25.361Z,10.90
2018-07-23T09:13:55.228Z,12.30
2018-07-23T09:16:25.072Z,12.17
2018-07-23T09:19:00.026Z,11.90
2018-07-23T09:21:30.157Z,12.20
2018-07-23T09:23:59.900Z,10.97
2018-07-23T09:26:30.786Z,11.47
2018-07-23T09:29:00.553Z,11.77
2018-07-23T09:31:30.328Z,13.90
2018-07-23T09:34:00.204Z,11.30
2018-07-23T09:36:33.489Z,12.00
2018-07-23T09:39:05.057Z,10.10
2018-07-23T09:41:34.748Z,9.00
2018-07-23T09:44:04.708Z,9.90
2018-07-23T09:46:34.605Z,9.30
2018-07-23T09:49:04.297Z,10.83
2018-07-23T09:51:34.132Z,10.53
2018-07-23T09:54:04.002Z,10.87
2018-07-23T09:56:33.711Z,11.53
2018-07-23T09:59:03.420Z,10.27
2018-07-23T10:01:33.348Z,9.20
2018-07-23T10:04:03.082Z,10.10
2018-07-23T10:06:32.925Z,10.50
2018-07-23T10:09:02.670Z,12.03
2018-07-23T10:11:32.476Z,10.63
2018-07-23T10:14:02.186Z,10.70
2018-07-23T10:16:31.957Z,8.73
2018-07-23T10:19:02.517Z,10.03
2018-07-23T10:21:32.425Z,10.37
2018-07-23T10:24:02.197Z,10.17
2018-07-23T10:26:31.955Z,10.10
2018-07-23T10:29:01.698Z,10.70
2018-07-23T10:31:31.518Z,10.10
2018-07-23T10:34:01.209Z,10.60
2018-07-23T10:36:30.869Z,11.47
2018-07-23T10:39:00.718Z,11.50
2018-07-23T10:41:30.482Z,9.80
2018-07-23T10:44:00.181Z,9.43
2018-07-23T10:46:29.911Z,10.80
2018-07-23T10:49:06.525Z,9.70
2018-07-23T10:51:36.261Z,11.00
2018-07-23T10:54:06.275Z,11.20
2018-07-23T10:56:35.966Z,11.10
2018-07-23T10:59:06.482Z,10.90
2018-07-23T11:01:36.196Z,10.27
2018-07-23T11:04:05.976Z,10.20
2018-07-23T11:06:35.806Z,10.67
2018-07-23T11:09:08.114Z,11.33
2018-07-23T11:11:38.106Z,11.43
2018-07-23T11:14:07.849Z,11.60
2018-07-23T11:16:37.619Z,10.03
2018-07-23T11:19:07.292Z,10.63
2018-07-23T11:21:37.009Z,9.70
2018-07-23T11:24:07.077Z,10.10
2018-07-23T11:26:36.722Z,10.17
2018-07-23T11:29:06.427Z,10.60
2018-07-23T11:31:36.088Z,11.20
2018-07-23T11:34:06.149Z,11.27
2018-07-23T11:36:35.850Z,10.00
2018-07-23T11:39:08.456Z,9.37
2018-07-23T11:41:38.415Z,10.80
2018-07-23T11:44:08.097Z,9.87
2018-07-23T11:46:37.975Z,8.77
2018-07-23T11:49:07.315Z,10.00
2018-07-23T11:51:37.954Z,10.87
2018-07-23T11:54:08.170Z,10.00
2018-07-23T11:56:38.044Z,9.50
2018-07-23T11:59:07.571Z,10.03
2018-07-23T12:01:37.261Z,9.00
2018-07-23T12:04:10.408Z,9.03
2018-07-23T12:06:36.596Z,7.90
2018-07-23T12:09:10.355Z,7.63
2018-07-23T12:11:40.546Z,8.90
2018-07-23T12:14:10.233Z,8.57
2018-07-23T12:16:40.054Z,8.60
2018-07-23T12:19:09.455Z,9.13
2018-07-23T12:21:38.837Z,7.20
2018-07-23T12:24:08.626Z,8.33
2018-07-23T12:26:38.330Z,8.27
2018-07-23T12:29:08.087Z,8.57
2018-07-23T12:31:37.825Z,8.43
2018-07-23T12:34:07.814Z,9.00
2018-07-23T12:36:37.720Z,9.10
2018-07-23T12:39:11.418Z,8.70
2018-07-23T12:41:41.789Z,7.50
2018-07-23T12:44:11.434Z,8.50
2018-07-23T12:46:41.144Z,9.70
2018-07-23T12:49:10.841Z,9.07
2018-07-23T12:51:40.208Z,8.93
2018-07-23T12:54:10.043Z,8.93
2018-07-23T12:56:39.777Z,9.07
2018-07-23T12:59:09.510Z,8.27
2018-07-23T13:01:39.146Z,7.17
2018-07-23T13:04:08.877Z,7.23
2018-07-23T13:06:38.589Z,7.80
2018-07-23T13:09:12.171Z,7.00
2018-07-23T13:11:41.922Z,5.80
2018-07-23T13:14:11.644Z,5.30
2018-07-23T13:16:41.370Z,5.13
2018-07-23T13:19:11.067Z,6.93
2018-07-23T13:21:40.789Z,6.77
2018-07-23T13:24:10.500Z,6.43
2018-07-23T13:26:40.253Z,5.90
2018-07-23T13:29:10.508Z,5.93
2018-07-23T13:31:40.230Z,6.00
2018-07-23T13:34:09.938Z,6.07
2018-07-23T13:36:39.661Z,6.00
2018-07-23T13:39:12.082Z,6.17
2018-07-23T13:41:41.959Z,7.20
2018-07-23T13:44:12.618Z,6.70
2018-07-23T13:46:41.993Z,6.50
2018-07-23T13:49:11.713Z,7.80
2018-07-23T13:51:41.583Z,6.93
2018-07-23T13:54:11.289Z,7.80
2018-07-23T13:56:41.033Z,6.30
2018-07-23T13:59:10.720Z,6.37
2018-07-23T14:01:40.401Z,6.60
2018-07-23T14:04:10.131Z,6.50
2018-07-23T14:06:39.806Z,6.17
2018-07-23T14:09:11.724Z,6.03
2018-07-23T14:11:41.845Z,4.87
2018-07-23T14:14:11.613Z,5.67
2018-07-23T14:16:41.332Z,5.67
2018-07-23T14:19:11.002Z,6.00
2018-07-23T14:21:40.696Z,6.50
2018-07-23T14:24:10.467Z,5.60
2018-07-23T14:26:40.285Z,6.00
2018-07-23T14:29:10.045Z,6.60
2018-07-23T14:31:39.796Z,5.80
2018-07-23T14:34:09.569Z,5.00
2018-07-23T14:36:39.341Z,5.30
2018-07-23T14:39:12.789Z,5.23
2018-07-23T14:41:42.563Z,5.80
2018-07-23T14:44:12.326Z,5.53
2018-07-23T14:46:42.133Z,5.97
2018-07-23T14:49:11.858Z,5.83
2018-07-23T14:51:43.232Z,6.00
2018-07-23T14:54:12.932Z,5.63
2018-07-23T14:56:42.673Z,5.93
2018-07-23T14:59:12.444Z,5.83
2018-07-23T15:01:44.257Z,7.80
2018-07-23T15:04:13.988Z,6.90
2018-07-23T15:06:43.357Z,6.10
2018-07-23T15:09:13.160Z,6.87
2018-07-23T15:11:42.972Z,5.70
2018-07-23T15:14:12.676Z,5.40
2018-07-23T15:16:42.348Z,6.67
2018-07-23T15:19:12.125Z,6.90
2018-07-23T15:21:41.782Z,5.30
2018-07-23T15:24:11.513Z,5.80
2018-07-23T15:26:41.277Z,5.40
2018-07-23T15:29:10.945Z,5.60
2018-07-23T15:31:40.605Z,6.33
2018-07-23T15:34:10.441Z,6.07
2018-07-23T15:36:39.829Z,6.53
2018-07-23T15:39:10.987Z,5.73
2018-07-23T15:41:40.683Z,5.53
2018-07-23T15:44:10.531Z,6.10
2018-07-23T15:46:40.082Z,6.07
2018-07-23T15:49:09.767Z,6.00
2018-07-23T15:51:39.461Z,6.63
2018-07-23T15:54:08.873Z,5.80
2018-07-23T15:56:38.234Z,6.60
2018-07-23T15:59:08.020Z,5.70
2018-07-23T16:01:37.727Z,5.87
2018-07-23T16:04:07.594Z,5.70
2018-07-23T16:06:37.362Z,5.10
2018-07-23T16:09:15.662Z,5.40
2018-07-23T16:11:45.394Z,5.27
2018-07-23T16:14:15.130Z,5.20
2018-07-23T16:16:44.929Z,5.20
2018-07-23T16:19:14.657Z,4.87
2018-07-23T16:21:44.345Z,5.10
2018-07-23T16:24:13.995Z,5.40
2018-07-23T16:26:43.653Z,5.67
2018-07-23T16:29:13.384Z,5.27
2018-07-23T16:31:43.139Z,5.30
2018-07-23T16:34:13.093Z,5.10
2018-07-23T16:36:42.450Z,5.27
2018-07-23T16:39:13.573Z,6.00
2018-07-23T16:41:43.675Z,5.40
2018-07-23T16:44:13.490Z,5.27
2018-07-23T16:46:43.217Z,5.70
2018-07-23T16:49:12.900Z,6.10
2018-07-23T16:51:42.297Z,5.73
2018-07-23T16:54:11.994Z,6.00
2018-07-23T16:56:41.877Z,5.10
2018-07-23T16:59:11.763Z,4.90
2018-07-23T17:01:41.514Z,5.47
2018-07-23T17:04:11.277Z,5.13
2018-07-23T17:06:40.994Z,5.73
2018-07-23T17:09:12.305Z,5.30
2018-07-23T17:11:41.957Z,5.07
2018-07-23T17:14:11.616Z,5.50
2018-07-23T17:16:41.415Z,5.80
2018-07-23T17:19:11.090Z,5.67
2018-07-23T17:21:40.800Z,5.50
2018-07-23T17:24:10.508Z,5.70
2018-07-23T17:26:40.196Z,5.40
2018-07-23T17:29:09.992Z,5.00
2018-07-23T17:31:39.764Z,5.13
2018-07-23T17:34:09.528Z,5.90
2018-07-23T17:36:39.299Z,4.73
2018-07-23T17:39:12.043Z,6.37
2018-07-23T17:41:41.993Z,6.10
2018-07-23T17:44:11.772Z,5.23
2018-07-23T17:46:41.472Z,5.53
2018-07-23T17:49:11.224Z,5.80
2018-07-23T17:51:41.089Z,5.23
2018-07-23T17:54:10.801Z,6.40
2018-07-23T17:56:40.652Z,6.23
2018-07-23T17:59:10.401Z,6.33
2018-07-23T18:01:40.088Z,5.70
2018-07-23T18:04:09.822Z,5.87
2018-07-23T18:06:39.780Z,6.80
2018-07-23T18:09:11.852Z,5.87
2018-07-23T18:11:41.834Z,7.57
2018-07-23T18:14:11.740Z,6.70
2018-07-23T18:16:41.701Z,6.47
2018-07-23T18:19:11.449Z,5.70
2018-07-23T18:21:41.182Z,5.83
2018-07-23T18:24:10.946Z,6.07
2018-07-23T18:26:40.661Z,7.33
2018-07-23T18:29:10.399Z,7.50
2018-07-23T18:31:40.262Z,6.90
2018-07-23T18:34:10.005Z,7.00
2018-07-23T18:36:39.711Z,7.03
2018-07-23T18:39:11.880Z,7.40
2018-07-23T18:41:42.225Z,6.77
2018-07-23T18:44:11.982Z,6.80
2018-07-23T18:46:41.756Z,6.57
2018-07-23T18:49:35.894Z,6.40
2018-07-23T18:52:05.660Z,6.50
2018-07-23T18:54:35.729Z,6.43
2018-07-23T18:57:06.689Z,6.87
2018-07-23T18:59:36.642Z,6.57
2018-07-23T19:02:07.849Z,6.70
2018-07-23T19:04:37.650Z,9.13
2018-07-23T19:07:08.516Z,7.87
2018-07-23T19:09:38.301Z,7.93
2018-07-23T19:12:08.885Z,8.10
2018-07-23T19:14:38.643Z,7.57
2018-07-23T19:17:09.737Z,7.93
2018-07-23T19:19:39.433Z,8.27
2018-07-23T19:22:09.342Z,7.83
2018-07-23T19:24:39.059Z,6.73
2018-07-23T19:27:09.325Z,7.60
2018-07-23T19:29:39.101Z,8.93
2018-07-23T19:32:08.856Z,9.33
2018-07-23T19:34:38.653Z,8.43
2018-07-23T19:37:08.429Z,7.67
2018-07-23T19:39:38.545Z,8.20
2018-07-23T19:42:07.947Z,7.97
2018-07-23T19:44:37.651Z,7.37
2018-07-23T19:47:07.530Z,7.07
2018-07-23T19:49:37.277Z,7.60
2018-07-23T19:52:07.325Z,7.23
2018-07-23T19:54:36.773Z,8.27
2018-07-23T19:57:06.531Z,8.37
2018-07-23T19:59:36.410Z,9.07
2018-07-23T20:02:06.121Z,8.10
2018-07-23T20:04:36.030Z,8.67
2018-07-23T20:07:06.222Z,8.80
2018-07-23T20:09:37.012Z,7.80
2018-07-23T20:12:07.081Z,9.97
2018-07-23T20:14:36.919Z,10.50
2018-07-23T20:17:06.758Z,11.50
2018-07-23T20:19:36.548Z,10.00
2018-07-23T20:22:06.343Z,9.87
2018-07-23T20:24:36.103Z,10.90
2018-07-23T20:27:06.028Z,8.63
2018-07-23T20:29:35.831Z,8.70
2018-07-23T20:32:05.559Z,9.40
2018-07-23T20:34:35.272Z,8.10
2018-07-23T20:37:05.135Z,8.07
2018-07-23T20:39:35.723Z,9.13
2018-07-23T20:42:05.435Z,8.00
2018-07-23T20:44:35.206Z,7.87
2018-07-23T20:47:04.913Z,8.67
2018-07-23T20:49:34.617Z,8.83
2018-07-23T20:52:04.155Z,8.70
2018-07-23T20:54:33.903Z,9.87
2018-07-23T20:57:03.727Z,10.53
2018-07-23T20:59:33.507Z,8.77
2018-07-23T21:02:03.290Z,8.97
2018-07-23T21:04:33.154Z,9.80
2018-07-23T21:07:02.878Z,9.30
2018-07-23T21:09:32.578Z,9.00
2018-07-23T21:12:02.222Z,9.83
2018-07-23T21:14:32.008Z,11.50
2018-07-23T21:17:01.906Z,10.20
2018-07-23T21:19:31.641Z,10.93
2018-07-23T21:22:01.408Z,9.50
2018-07-23T21:24:31.233Z,9.30
2018-07-23T21:27:01.245Z,9.30
2018-07-23T21:29:31.472Z,9.33
2018-07-23T21:32:01.373Z,9.00
2018-07-23T21:34:31.141Z,10.63
2018-07-23T21:37:01.053Z,9.80
2018-07-23T21:39:30.918Z,9.93
2018-07-23T21:42:00.796Z,11.03
2018-07-23T21:44:30.514Z,11.93
2018-07-23T21:47:00.385Z,10.20
2018-07-23T21:49:30.056Z,10.13
2018-07-23T21:52:00.169Z,11.83
2018-07-23T21:54:30.412Z,10.30
2018-07-23T21:57:00.170Z,10.90
2018-07-23T21:59:29.884Z,10.90
2018-07-23T22:01:59.701Z,11.20
2018-07-23T22:04:29.248Z,11.87
2018-07-23T22:06:58.996Z,11.33
2018-07-23T22:09:28.738Z,12.20
2018-07-23T22:11:58.110Z,10.93
2018-07-23T22:14:27.897Z,11.93
2018-07-23T22:16:57.598Z,11.37
2018-07-23T22:19:27.516Z,12.40
2018-07-23T22:21:57.249Z,10.87
2018-07-23T22:24:26.974Z,12.40
2018-07-23T22:26:56.677Z,12.40
2018-07-23T22:29:26.438Z,11.33
2018-07-23T22:31:56.178Z,12.13
2018-07-23T22:34:26.839Z,12.27
2018-07-23T22:36:56.767Z,12.40
2018-07-23T22:39:26.564Z,11.97
2018-07-23T22:41:56.292Z,12.27
2018-07-23T22:44:26.076Z,12.87
2018-07-23T22:46:55.802Z,11.70
2018-07-23T22:49:25.624Z,13.30
2018-07-23T22:51:55.329Z,12.63
2018-07-23T22:54:25.036Z,11.60
2018-07-23T22:56:54.777Z,13.80
2018-07-23T22:59:24.451Z,14.47
2018-07-23T23:01:54.192Z,13.10
2018-07-23T23:04:27.551Z,13.20
2018-07-23T23:06:57.297Z,14.03
2018-07-23T23:09:27.260Z,13.93
2018-07-23T23:11:56.998Z,13.50
2018-07-23T23:14:26.719Z,13.60
2018-07-23T23:16:56.505Z,13.93
2018-07-23T23:19:26.292Z,13.40
2018-07-23T23:21:56.324Z,13.10
2018-07-23T23:24:26.128Z,13.87
2018-07-23T23:26:55.840Z,15.10
2018-07-23T23:29:25.475Z,14.80
2018-07-23T23:31:55.334Z,16.50
2018-07-23T23:34:25.010Z,16.60
2018-07-23T23:36:54.729Z,14.67
2018-07-23T23:39:24.502Z,15.50
2018-07-23T23:41:54.329Z,14.80
2018-07-23T23:44:24.068Z,14.30
2018-07-23T23:46:53.828Z,15.40
2018-07-23T23:49:23.642Z,15.37
2018-07-23T23:51:53.342Z,14.10
2018-07-23T23:54:23.051Z,17.30
2018-07-23T23:56:52.797Z,15.13
2018-07-23T23:59:22.745Z,15.90
